createdAt,value
2022-10-01T00:01:39.630Z,40.74
2022-10-01T00:06:41.032Z,40.57
2022-10-01T00:11:42.384Z,40.55
2022-10-01T00:16:43.825Z,40.39
2022-10-01T00:21:45.230Z,40.05
2022-10-01T00:26:47.977Z,39.73
2022-10-01T00:31:49.408Z,39.79
2022-10-01T00:36:50.813Z,39.67
2022-10-01T00:41:52.558Z,39.35
2022-10-01T00:46:53.931Z,39.37
2022-10-01T00:51:59.195Z,39.31
2022-10-01T00:57:01.246Z,39.35
2022-10-01T01:02:02.680Z,39.15
2022-10-01T01:07:04.274Z,39.22
2022-10-01T01:12:17.201Z,38.84
2022-10-01T01:17:24.960Z,39.08
2022-10-01T01:22:26.325Z,38.99
2022-10-01T01:27:37.980Z,38.82
2022-10-01T01:32:46.900Z,38.84
2022-10-01T01:37:51.746Z,38.93
2022-10-01T01:42:53.153Z,38.93
2022-10-01T01:47:55.972Z,38.88
2022-10-01T01:52:58.097Z,38.88
2022-10-01T01:57:59.461Z,38.68
2022-10-01T02:03:00.872Z,38.86
2022-10-01T02:08:16.529Z,38.58
2022-10-01T02:13:55.532Z,38.65
2022-10-01T02:19:21.831Z,38.53
2022-10-01T02:24:33.574Z,38.55
2022-10-01T02:29:35.069Z,38.17
2022-10-01T02:34:36.469Z,38.31
2022-10-01T02:39:38.212Z,38.51
2022-10-01T02:44:40.306Z,38.65
2022-10-01T02:49:41.681Z,38.52
2022-10-01T02:54:45.562Z,38.43
2022-10-01T02:59:47.465Z,38.11
2022-10-01T03:04:48.845Z,38.19
2022-10-01T03:09:50.932Z,38.37
2022-10-01T03:14:53.036Z,38.41
2022-10-01T03:19:54.504Z,38.26
2022-10-01T03:24:55.873Z,38.32
2022-10-01T03:29:57.240Z,38.11
2022-10-01T03:34:58.602Z,37.96
2022-10-01T03:40:00.153Z,38.15
2022-10-01T03:45:01.542Z,38.07
2022-10-01T03:50:02.993Z,37.97
2022-10-01T03:55:05.744Z,37.97
2022-10-01T04:00:07.657Z,38.05
2022-10-01T04:05:09.116Z,37.89
2022-10-01T04:10:10.585Z,37.88
2022-10-01T04:15:11.941Z,37.92
2022-10-01T04:20:13.312Z,37.79
2022-10-01T04:25:14.715Z,37.94
2022-10-01T04:30:16.077Z,38.16
2022-10-01T04:35:17.614Z,37.96
2022-10-01T04:40:18.988Z,37.97
2022-10-01T04:45:20.349Z,37.93
2022-10-01T04:50:22.916Z,37.73
2022-10-01T04:55:24.413Z,37.90
2022-10-01T05:00:26.419Z,37.96
2022-10-01T05:05:29.042Z,38.00
2022-10-01T05:10:31.246Z,37.93
2022-10-01T05:15:32.878Z,37.83
2022-10-01T05:20:34.461Z,37.91
2022-10-01T05:25:35.817Z,37.91
2022-10-01T05:30:37.180Z,37.93
2022-10-01T05:35:38.532Z,38.14
2022-10-01T05:40:39.982Z,38.24
2022-10-01T05:45:41.599Z,38.25
2022-10-01T05:50:43.994Z,38.40
2022-10-01T05:55:45.353Z,38.31
2022-10-01T06:00:46.795Z,38.59
2022-10-01T06:05:48.157Z,38.69
2022-10-01T06:10:51.560Z,38.76
2022-10-01T06:15:53.365Z,39.01
2022-10-01T06:20:54.721Z,38.96
2022-10-01T06:25:56.117Z,38.96
2022-10-01T06:30:57.511Z,39.10
2022-10-01T06:35:58.864Z,39.27
2022-10-01T06:41:01.222Z,39.37
2022-10-01T06:51:05.636Z,39.40
2022-10-01T06:56:07.271Z,39.41
2022-10-01T07:01:09.542Z,39.62
2022-10-01T07:06:11.288Z,39.54
2022-10-01T07:11:13.674Z,39.38
2022-10-01T07:16:15.846Z,39.78
2022-10-01T07:21:17.233Z,39.90
2022-10-01T07:26:18.788Z,39.83
2022-10-01T07:31:20.171Z,40.15
2022-10-01T07:36:21.549Z,40.09
2022-10-01T07:41:22.952Z,40.06
2022-10-01T07:46:24.305Z,40.08
2022-10-01T07:51:26.567Z,40.29
2022-10-01T07:56:27.926Z,40.19
2022-10-01T08:01:31.595Z,40.57
2022-10-01T08:06:33.213Z,40.35
2022-10-01T08:11:36.335Z,40.58
2022-10-01T08:16:39.611Z,40.64
2022-10-01T08:21:41.728Z,40.42
2022-10-01T08:26:43.096Z,40.59
2022-10-01T08:31:44.500Z,40.70
2022-10-01T08:36:50.808Z,40.64
2022-10-01T08:41:58.689Z,41.01
2022-10-01T08:47:04.460Z,41.17
2022-10-01T08:52:19.794Z,40.91
2022-10-01T08:57:23.756Z,40.85
2022-10-01T09:02:35.533Z,41.01
2022-10-01T09:08:01.332Z,41.00
2022-10-01T09:13:18.696Z,40.99
2022-10-01T09:18:39.897Z,40.69
2022-10-01T09:23:47.166Z,40.84
2022-10-01T09:28:48.524Z,40.58
2022-10-01T09:34:13.960Z,40.60
2022-10-01T09:39:21.848Z,40.58
2022-10-01T09:44:27.627Z,40.41
2022-10-01T09:49:34.980Z,40.32
2022-10-01T09:54:58.524Z,40.33
2022-10-01T10:00:21.420Z,40.20
2022-10-01T10:05:29.481Z,40.27
2022-10-01T10:10:35.514Z,40.07
2022-10-01T10:15:43.610Z,40.38
2022-10-01T10:20:45.425Z,40.24
2022-10-01T10:26:02.975Z,40.30
2022-10-01T10:31:09.812Z,40.45
2022-10-01T10:36:11.560Z,40.20
2022-10-01T10:41:19.365Z,40.17
2022-10-01T10:46:22.882Z,40.43
2022-10-01T10:51:24.361Z,40.37
2022-10-01T10:56:26.028Z,40.29
2022-10-01T11:01:28.573Z,40.21
2022-10-01T11:06:30.187Z,40.57
2022-10-01T11:11:57.446Z,40.52
2022-10-01T11:17:20.156Z,40.65
2022-10-01T11:22:47.449Z,40.81
2022-10-01T11:27:52.412Z,40.76
2022-10-01T11:33:21.375Z,40.96
2022-10-01T11:38:36.156Z,41.25
2022-10-01T11:43:40.369Z,41.14
2022-10-01T11:48:44.629Z,41.38
2022-10-01T11:53:51.197Z,41.43
2022-10-01T11:59:05.253Z,41.37
2022-10-01T12:04:17.217Z,41.45
2022-10-01T12:09:26.562Z,41.62
2022-10-01T12:14:32.500Z,41.63
2022-10-01T12:19:34.498Z,41.81
2022-10-01T12:24:38.793Z,41.96
2022-10-01T12:29:50.480Z,41.82
2022-10-01T12:35:13.472Z,41.92
2022-10-01T12:40:27.865Z,42.07
2022-10-01T12:45:48.372Z,41.80
2022-10-01T12:51:14.388Z,41.89
2022-10-01T12:56:39.198Z,42.15
2022-10-01T13:02:18.142Z,42.42
2022-10-01T13:07:37.484Z,42.04
2022-10-01T13:13:04.174Z,42.41
2022-10-01T13:18:14.150Z,42.21
2022-10-01T13:23:28.855Z,42.23
2022-10-01T13:28:48.885Z,42.34
2022-10-01T13:33:54.945Z,42.19
2022-10-01T13:38:56.300Z,42.13
2022-10-01T13:44:11.397Z,42.47
2022-10-01T13:49:28.577Z,42.56
2022-10-01T13:54:46.441Z,42.52
2022-10-01T13:59:49.357Z,42.62
2022-10-01T14:04:50.772Z,42.31
2022-10-01T14:09:53.156Z,42.69
2022-10-01T14:15:17.807Z,42.56
2022-10-01T14:20:21.471Z,42.59
2022-10-01T14:25:37.016Z,42.53
2022-10-01T14:30:43.043Z,42.76
2022-10-01T14:35:58.327Z,42.70
2022-10-01T14:40:59.833Z,42.77
2022-10-01T14:46:03.072Z,42.68
2022-10-01T14:51:05.909Z,42.80
2022-10-01T14:56:12.553Z,42.86
2022-10-01T15:01:20.968Z,42.87
2022-10-01T15:06:28.568Z,43.07
2022-10-01T15:11:30.906Z,42.76
2022-10-01T15:16:36.074Z,42.91
2022-10-01T15:21:45.319Z,43.00
2022-10-01T15:26:47.374Z,42.97
2022-10-01T15:31:49.748Z,43.09
2022-10-01T15:36:51.306Z,43.14
2022-10-01T15:41:52.712Z,43.11
2022-10-01T15:46:54.070Z,43.08
2022-10-01T15:52:20.065Z,43.18
2022-10-01T15:57:21.984Z,43.29
2022-10-01T16:02:28.847Z,43.10
2022-10-01T16:07:30.382Z,42.95
2022-10-01T16:12:31.745Z,42.99
2022-10-01T16:17:34.568Z,42.95
2022-10-01T16:22:37.400Z,42.88
2022-10-01T16:27:46.356Z,42.87
2022-10-01T16:32:47.788Z,42.80
2022-10-01T16:37:50.145Z,42.47
2022-10-01T16:47:53.069Z,42.11
2022-10-01T16:52:55.278Z,42.23
2022-10-01T16:57:56.658Z,42.14
2022-10-01T17:02:58.236Z,41.94
2022-10-01T17:08:04.276Z,41.84
2022-10-01T17:13:05.641Z,41.70
2022-10-01T17:18:09.506Z,41.78
2022-10-01T17:23:14.491Z,41.83
2022-10-01T17:28:17.232Z,41.66
2022-10-01T17:33:19.177Z,41.60
2022-10-01T17:38:20.926Z,41.70
2022-10-01T17:43:22.309Z,41.56
2022-10-01T17:48:24.282Z,41.73
2022-10-01T17:53:28.526Z,41.76
2022-10-01T17:58:34.317Z,41.68
2022-10-01T18:03:36.189Z,41.61
2022-10-01T18:08:54.108Z,41.61
2022-10-01T18:13:57.116Z,41.80
2022-10-01T18:24:20.266Z,41.77
2022-10-01T18:29:26.300Z,41.82
2022-10-01T18:34:43.237Z,41.87
2022-10-01T18:39:45.632Z,41.57
2022-10-01T18:44:56.101Z,41.93
2022-10-01T18:50:10.193Z,41.76
2022-10-01T18:55:17.726Z,41.71
2022-10-01T19:00:23.261Z,41.84
2022-10-01T19:05:40.763Z,41.57
2022-10-01T19:10:57.549Z,41.66
2022-10-01T19:16:09.407Z,41.66
2022-10-01T19:21:27.163Z,41.67
2022-10-01T19:26:29.064Z,41.58
2022-10-01T19:31:52.543Z,41.65
2022-10-01T19:36:57.258Z,41.68
2022-10-01T19:42:01.598Z,41.57
2022-10-01T19:47:27.245Z,41.58
2022-10-01T19:52:28.732Z,41.62
2022-10-01T19:57:31.168Z,41.69
2022-10-01T20:02:39.580Z,41.58
2022-10-01T20:07:43.725Z,41.63
2022-10-01T20:13:06.036Z,41.48
2022-10-01T20:18:15.929Z,41.73
2022-10-01T20:23:42.139Z,41.67
2022-10-01T20:29:05.872Z,41.70
2022-10-01T20:34:19.574Z,41.50
2022-10-01T20:39:41.613Z,41.68
2022-10-01T20:44:42.965Z,41.72
2022-10-01T20:49:47.678Z,41.58
2022-10-01T20:54:52.801Z,41.46
2022-10-01T20:59:54.448Z,41.57
2022-10-01T21:05:07.746Z,41.62
2022-10-01T21:10:51.986Z,41.54
2022-10-01T21:16:10.284Z,41.29
2022-10-01T21:21:35.072Z,41.47
2022-10-01T21:27:14.252Z,41.39
2022-10-01T21:33:09.857Z,41.22
2022-10-01T21:38:15.318Z,41.28
2022-10-01T21:43:27.343Z,41.17
2022-10-01T21:48:54.401Z,41.14
2022-10-01T21:54:08.890Z,41.29
2022-10-01T21:59:33.539Z,41.17
2022-10-01T22:04:38.165Z,41.04
2022-10-01T22:09:58.164Z,41.32
2022-10-01T22:14:59.530Z,41.22
2022-10-01T22:20:02.792Z,41.29
2022-10-01T22:25:04.769Z,41.35
2022-10-01T22:30:07.900Z,41.14
2022-10-01T22:35:15.177Z,41.00
2022-10-01T22:40:24.711Z,41.13
2022-10-01T22:45:34.631Z,41.19
2022-10-01T22:50:55.801Z,41.27
2022-10-01T22:55:57.321Z,41.17
2022-10-01T23:01:13.658Z,41.17
2022-10-01T23:06:42.075Z,41.22
2022-10-01T23:11:52.509Z,41.31
2022-10-01T23:16:55.950Z,41.05
2022-10-01T23:22:22.188Z,41.02
2022-10-01T23:27:59.382Z,41.26
2022-10-01T23:33:15.780Z,41.00
2022-10-01T23:38:32.177Z,41.18
2022-10-01T23:43:37.444Z,41.14
2022-10-01T23:48:53.956Z,41.08
2022-10-01T23:54:00.581Z,41.18
2022-10-01T23:59:08.972Z,41.10
